createdAt,value
2024-01-07T00:01:57.016Z,4.05
2024-01-07T00:04:25.061Z,4.28
2024-01-07T00:06:52.677Z,4.68
2024-01-07T00:09:20.138Z,4.75
2024-01-07T00:14:17.015Z,5.22
2024-01-07T00:16:44.593Z,5.50
2024-01-07T00:19:12.341Z,5.95
2024-01-07T00:21:40.127Z,5.57
2024-01-07T00:24:07.739Z,6.05
2024-01-07T00:26:36.749Z,5.88
2024-01-07T00:29:04.303Z,6.25
2024-01-07T00:31:32.087Z,6.57
2024-01-07T00:33:59.746Z,6.75
2024-01-07T00:36:27.394Z,7.13
2024-01-07T00:38:54.956Z,7.40
2024-01-07T00:43:49.773Z,5.53
2024-01-07T00:48:45.836Z,4.80
2024-01-07T00:51:13.709Z,5.00
2024-01-07T00:53:41.742Z,4.20
2024-01-07T00:56:09.423Z,4.32
2024-01-07T00:58:37.821Z,4.35
2024-01-07T01:01:05.540Z,4.55
2024-01-07T01:03:33.166Z,4.82
2024-01-07T01:06:00.857Z,4.60
2024-01-07T01:08:28.386Z,4.45
2024-01-07T01:13:23.206Z,4.00
2024-01-07T01:15:50.721Z,4.22
2024-01-07T01:18:18.456Z,3.97
2024-01-07T01:20:45.941Z,3.90
2024-01-07T01:23:13.690Z,3.97
2024-01-07T01:25:41.353Z,4.80
2024-01-07T01:28:09.018Z,4.00
2024-01-07T01:30:36.671Z,4.15
2024-01-07T01:33:04.609Z,4.55
2024-01-07T01:35:32.188Z,4.57
2024-01-07T01:37:59.669Z,3.95
2024-01-07T01:42:54.476Z,4.10
2024-01-07T01:47:49.942Z,4.20
2024-01-07T01:50:19.051Z,4.78
2024-01-07T01:52:47.449Z,4.65
2024-01-07T01:55:15.601Z,4.45
2024-01-07T01:57:44.535Z,4.28
2024-01-07T02:00:12.845Z,4.05
2024-01-07T02:02:40.461Z,4.32
2024-01-07T02:05:08.312Z,4.50
2024-01-07T02:07:36.108Z,4.10
2024-01-07T02:10:04.022Z,3.75
2024-01-07T02:12:31.793Z,3.88
2024-01-07T02:14:59.254Z,4.30
2024-01-07T02:19:55.049Z,4.25
2024-01-07T02:22:22.720Z,5.22
2024-01-07T02:24:50.322Z,5.88
2024-01-07T02:27:18.200Z,5.75
2024-01-07T02:29:45.694Z,5.88
2024-01-07T02:32:13.250Z,5.47
2024-01-07T02:34:40.815Z,5.00
2024-01-07T02:37:09.434Z,4.47
2024-01-07T02:39:37.034Z,3.97
2024-01-07T02:42:04.858Z,3.95
2024-01-07T02:44:32.623Z,4.57
2024-01-07T02:47:00.136Z,4.55
2024-01-07T02:49:27.745Z,4.80
2024-01-07T02:51:55.900Z,5.03
2024-01-07T02:54:23.837Z,4.45
2024-01-07T02:56:51.380Z,5.05
2024-01-07T02:59:19.059Z,5.13
2024-01-07T03:01:46.756Z,5.13
2024-01-07T03:04:16.967Z,4.55
2024-01-07T03:06:44.579Z,4.80
2024-01-07T03:09:12.918Z,4.50
2024-01-07T03:11:42.530Z,4.18
2024-01-07T03:14:11.214Z,4.63
2024-01-07T03:16:38.668Z,4.75
2024-01-07T03:21:33.813Z,4.18
2024-01-07T03:24:01.441Z,4.13
2024-01-07T03:26:33.714Z,4.03
2024-01-07T03:29:03.371Z,4.53
2024-01-07T03:31:31.257Z,4.90
2024-01-07T03:33:59.288Z,4.20
2024-01-07T03:36:26.964Z,3.92
2024-01-07T03:38:55.445Z,5.00
2024-01-07T03:41:23.139Z,4.40
2024-01-07T03:43:51.481Z,4.78
2024-01-07T03:46:19.227Z,4.22
2024-01-07T03:48:47.842Z,4.22
2024-01-07T03:51:15.569Z,4.45
2024-01-07T03:53:43.228Z,4.03
2024-01-07T03:56:10.662Z,4.10
2024-01-07T04:01:06.259Z,4.15
2024-01-07T04:03:34.024Z,4.65
2024-01-07T04:08:29.774Z,4.03
2024-01-07T04:10:57.640Z,4.07
2024-01-07T04:13:25.161Z,3.00
2024-01-07T04:15:52.738Z,3.40
2024-01-07T04:18:20.479Z,3.40
2024-01-07T04:20:47.979Z,3.15
2024-01-07T04:25:43.556Z,2.80
2024-01-07T04:28:11.291Z,3.03
2024-01-07T04:30:38.944Z,2.78
2024-01-07T04:33:06.618Z,2.90
2024-01-07T04:35:34.133Z,2.80
2024-01-07T04:40:28.945Z,2.75
2024-01-07T04:42:56.446Z,2.80
2024-01-07T04:45:23.978Z,2.83
2024-01-07T04:47:51.565Z,2.92
2024-01-07T04:50:21.196Z,2.40
2024-01-07T04:52:48.769Z,2.42
2024-01-07T04:57:44.691Z,2.53
2024-01-07T05:00:13.471Z,2.90
2024-01-07T05:02:40.926Z,2.47
2024-01-07T05:07:38.759Z,3.05
2024-01-07T05:10:06.938Z,2.80
2024-01-07T05:12:34.435Z,1.95
2024-01-07T05:17:30.656Z,2.30
2024-01-07T05:19:58.297Z,2.72
2024-01-07T05:22:25.843Z,2.92
2024-01-07T05:27:20.699Z,2.67
2024-01-07T05:29:51.165Z,2.55
2024-01-07T05:32:18.641Z,2.53
2024-01-07T05:37:13.523Z,2.47
2024-01-07T05:39:41.145Z,2.47
2024-01-07T05:42:08.598Z,2.50
2024-01-07T05:47:05.405Z,2.70
2024-01-07T05:49:33.269Z,2.70
2024-01-07T05:52:00.923Z,2.47
2024-01-07T05:54:31.227Z,2.60
2024-01-07T05:57:00.320Z,2.85
2024-01-07T05:59:27.794Z,2.80
2024-01-07T06:02:00.506Z,3.20
2024-01-07T06:04:28.312Z,2.65
2024-01-07T06:06:56.288Z,2.85
2024-01-07T06:09:24.317Z,2.50
2024-01-07T06:11:52.047Z,2.70
2024-01-07T06:14:19.532Z,3.10
2024-01-07T06:19:15.997Z,3.13
2024-01-07T06:21:43.689Z,2.97
2024-01-07T06:24:11.380Z,2.88
2024-01-07T06:26:38.966Z,3.13
2024-01-07T06:29:06.473Z,2.90
2024-01-07T06:31:34.044Z,2.92
2024-01-07T06:34:02.336Z,2.78
2024-01-07T06:36:30.256Z,2.95
2024-01-07T06:38:57.710Z,3.20
2024-01-07T06:41:25.562Z,3.10
2024-01-07T06:43:55.220Z,3.10
2024-01-07T06:46:22.744Z,2.70
2024-01-07T06:48:51.892Z,3.50
2024-01-07T06:51:19.592Z,3.30
2024-01-07T06:56:15.373Z,3.42
2024-01-07T06:58:44.055Z,2.85
2024-01-07T07:01:13.144Z,3.10
2024-01-07T07:03:42.669Z,2.90
2024-01-07T07:06:10.329Z,3.00
2024-01-07T07:08:37.809Z,2.83
2024-01-07T07:13:32.640Z,2.97
2024-01-07T07:16:00.910Z,3.30
2024-01-07T07:18:28.713Z,3.20
2024-01-07T07:20:56.295Z,3.50
2024-01-07T07:23:23.776Z,3.17
2024-01-07T07:28:19.006Z,3.20
2024-01-07T07:30:49.199Z,2.95
2024-01-07T07:33:18.715Z,2.90
2024-01-07T07:35:47.464Z,2.80
2024-01-07T07:38:15.878Z,3.53
2024-01-07T07:40:43.491Z,3.00
2024-01-07T07:45:38.469Z,2.90
2024-01-07T07:48:06.711Z,3.17
2024-01-07T07:50:34.199Z,3.30
2024-01-07T07:55:29.746Z,2.90
2024-01-07T07:57:57.366Z,2.83
2024-01-07T08:00:25.591Z,3.15
2024-01-07T08:02:54.112Z,3.08
2024-01-07T08:05:21.685Z,3.00
2024-01-07T08:07:49.198Z,3.17
2024-01-07T08:12:44.913Z,4.18
2024-01-07T08:15:12.599Z,3.30
2024-01-07T08:17:40.175Z,2.85
2024-01-07T08:20:08.464Z,3.60
2024-01-07T08:22:36.106Z,3.45
2024-01-07T08:25:03.858Z,3.65
2024-01-07T08:27:33.745Z,3.25
2024-01-07T08:30:03.074Z,2.78
2024-01-07T08:32:30.778Z,3.75
2024-01-07T08:34:58.369Z,3.40
2024-01-07T08:37:25.903Z,2.70
2024-01-07T08:39:53.393Z,3.22
2024-01-07T08:44:48.639Z,3.17
2024-01-07T08:47:16.341Z,3.00
2024-01-07T08:49:44.809Z,3.15
2024-01-07T08:52:12.547Z,2.97
2024-01-07T08:54:40.115Z,2.60
2024-01-07T08:57:07.662Z,3.13
2024-01-07T08:59:35.249Z,2.58
2024-01-07T09:02:04.024Z,2.70
2024-01-07T09:04:31.730Z,4.18
2024-01-07T09:06:59.289Z,2.72
2024-01-07T09:09:27.632Z,2.65
2024-01-07T09:11:57.736Z,2.95
2024-01-07T09:14:26.516Z,2.97
2024-01-07T09:16:55.381Z,2.78
2024-01-07T09:19:22.946Z,2.53
2024-01-07T09:21:50.624Z,2.78
2024-01-07T09:24:18.166Z,2.40
2024-01-07T09:26:45.909Z,2.55
2024-01-07T09:29:15.102Z,3.13
2024-01-07T09:31:42.787Z,2.65
2024-01-07T09:34:10.494Z,2.15
2024-01-07T09:36:38.135Z,2.38
2024-01-07T09:39:08.715Z,2.05
2024-01-07T09:41:36.344Z,2.10
2024-01-07T09:44:05.036Z,2.00
2024-01-07T09:46:33.624Z,1.75
2024-01-07T09:49:01.244Z,2.05
2024-01-07T09:51:30.508Z,1.80
2024-01-07T09:54:03.235Z,1.70
2024-01-07T09:56:39.800Z,2.03
2024-01-07T09:59:08.394Z,1.85
2024-01-07T10:01:38.995Z,2.17
2024-01-07T10:04:06.717Z,1.52
2024-01-07T10:06:34.282Z,2.05
2024-01-07T10:09:02.031Z,1.92
2024-01-07T10:11:29.547Z,2.13
2024-01-07T10:16:24.439Z,1.45
2024-01-07T10:18:52.221Z,2.03
2024-01-07T10:21:20.096Z,1.65
2024-01-07T10:23:47.672Z,1.88
2024-01-07T10:26:23.496Z,1.55
2024-01-07T10:28:55.752Z,1.70
2024-01-07T10:31:23.697Z,2.25
2024-01-07T10:33:51.544Z,1.95
2024-01-07T10:36:21.621Z,1.60
2024-01-07T10:38:49.323Z,1.70
2024-01-07T10:41:21.694Z,1.73
2024-01-07T10:43:50.049Z,1.20
2024-01-07T10:46:21.083Z,1.80
2024-01-07T10:49:00.730Z,1.35
2024-01-07T10:51:29.661Z,1.25
2024-01-07T10:53:57.833Z,1.65
2024-01-07T10:56:26.799Z,1.40
2024-01-07T10:58:58.294Z,1.20
2024-01-07T11:01:25.922Z,1.38
2024-01-07T11:04:19.646Z,1.33
2024-01-07T11:07:13.317Z,1.48
2024-01-07T11:10:06.314Z,1.30
2024-01-07T11:12:34.766Z,1.45
2024-01-07T11:15:03.780Z,1.20
2024-01-07T11:17:36.994Z,1.40
2024-01-07T11:20:13.745Z,1.50
2024-01-07T11:22:41.376Z,1.23
2024-01-07T11:25:30.429Z,1.70
2024-01-07T11:28:03.117Z,1.15
2024-01-07T11:30:30.929Z,1.30
2024-01-07T11:33:02.192Z,1.35
2024-01-07T11:35:55.163Z,1.80
2024-01-07T11:38:22.831Z,1.63
2024-01-07T11:40:51.398Z,1.50
2024-01-07T11:43:19.910Z,0.93
2024-01-07T11:45:48.381Z,1.30
2024-01-07T11:48:17.055Z,1.20
2024-01-07T11:50:47.909Z,0.93
2024-01-07T11:53:16.953Z,1.23
2024-01-07T11:55:46.217Z,1.77
2024-01-07T11:58:13.847Z,1.13
2024-01-07T12:00:41.559Z,2.08
2024-01-07T12:03:09.054Z,1.30
2024-01-07T12:05:36.665Z,1.38
2024-01-07T12:08:04.899Z,1.95
2024-01-07T12:10:32.536Z,0.93
2024-01-07T12:13:00.260Z,1.20
2024-01-07T12:15:28.976Z,1.48
2024-01-07T12:18:02.954Z,1.35
2024-01-07T12:20:30.949Z,1.52
2024-01-07T12:23:06.061Z,2.08
2024-01-07T12:25:33.648Z,1.30
2024-01-07T12:28:01.124Z,1.08
2024-01-07T12:30:29.023Z,1.30
2024-01-07T12:32:56.773Z,1.42
2024-01-07T12:35:27.249Z,1.33
2024-01-07T12:37:54.787Z,1.27
2024-01-07T12:40:22.403Z,1.27
2024-01-07T12:42:50.720Z,1.98
2024-01-07T12:45:18.417Z,1.10
2024-01-07T12:47:47.064Z,1.30
2024-01-07T12:50:15.056Z,1.35
2024-01-07T12:52:42.634Z,1.27
2024-01-07T12:55:10.279Z,0.80
2024-01-07T12:57:37.968Z,1.27
2024-01-07T13:00:09.066Z,1.42
2024-01-07T13:02:37.184Z,1.20
2024-01-07T13:05:05.293Z,0.95
2024-01-07T13:07:33.033Z,1.02
2024-01-07T13:10:00.687Z,1.20
2024-01-07T13:12:40.176Z,0.88
2024-01-07T13:15:17.976Z,0.80
2024-01-07T13:17:46.216Z,0.98
2024-01-07T13:20:13.913Z,0.73
2024-01-07T13:23:07.255Z,0.90
2024-01-07T13:25:35.121Z,1.23
2024-01-07T13:28:04.082Z,1.50
2024-01-07T13:30:32.038Z,1.10
2024-01-07T13:33:01.041Z,1.13
2024-01-07T13:35:30.123Z,1.05
2024-01-07T13:37:58.737Z,0.93
2024-01-07T13:40:26.273Z,1.70
2024-01-07T13:42:54.805Z,1.05
2024-01-07T13:45:24.393Z,0.90
2024-01-07T13:47:52.451Z,0.85
2024-01-07T13:50:20.175Z,1.30
2024-01-07T13:52:48.145Z,1.00
2024-01-07T13:55:15.876Z,1.48
2024-01-07T13:57:43.633Z,0.93
2024-01-07T14:00:12.660Z,0.90
2024-01-07T14:02:41.857Z,0.90
2024-01-07T14:05:11.665Z,0.82
2024-01-07T14:07:40.245Z,1.08
2024-01-07T14:10:10.079Z,1.25
2024-01-07T14:12:38.506Z,1.00
2024-01-07T14:15:06.609Z,1.20
2024-01-07T14:17:34.118Z,1.00
2024-01-07T14:20:01.897Z,0.90
2024-01-07T14:22:30.428Z,0.82
2024-01-07T14:24:58.062Z,0.93
2024-01-07T14:27:25.654Z,0.68
2024-01-07T14:29:53.127Z,0.85
2024-01-07T14:34:50.722Z,2.08
2024-01-07T14:37:18.473Z,0.93
2024-01-07T14:39:46.694Z,0.82
2024-01-07T14:42:14.345Z,1.30
2024-01-07T14:44:48.118Z,1.00
2024-01-07T14:47:19.261Z,0.95
2024-01-07T14:49:47.004Z,1.17
2024-01-07T14:52:15.595Z,1.00
2024-01-07T14:54:43.340Z,1.15
2024-01-07T14:57:14.917Z,0.98
2024-01-07T14:59:44.465Z,1.55
2024-01-07T15:02:14.727Z,1.40
2024-01-07T15:04:43.401Z,1.63
2024-01-07T15:07:11.041Z,1.33
2024-01-07T15:09:45.143Z,0.70
2024-01-07T15:12:12.848Z,1.33
2024-01-07T15:14:40.263Z,1.00
2024-01-07T15:19:35.555Z,1.10
2024-01-07T15:22:04.273Z,0.93
2024-01-07T15:24:31.883Z,1.10
2024-01-07T15:26:59.407Z,1.30
2024-01-07T15:29:27.010Z,1.73
2024-01-07T15:31:55.941Z,1.20
2024-01-07T15:34:24.854Z,1.35
2024-01-07T15:36:52.947Z,1.30
2024-01-07T15:39:23.976Z,1.83
2024-01-07T15:41:51.845Z,1.00
2024-01-07T15:44:19.435Z,0.93
2024-01-07T15:46:47.630Z,1.40
2024-01-07T15:49:15.256Z,1.60
2024-01-07T15:51:42.884Z,1.98
2024-01-07T15:54:10.453Z,1.08
2024-01-07T15:56:38.006Z,1.50
2024-01-07T15:59:09.883Z,1.65
2024-01-07T16:01:37.566Z,1.20
2024-01-07T16:04:05.262Z,1.33
2024-01-07T16:06:32.969Z,0.98
2024-01-07T16:09:00.547Z,1.20
2024-01-07T16:11:27.968Z,1.10
2024-01-07T16:16:23.698Z,1.30
2024-01-07T16:18:51.401Z,1.88
2024-01-07T16:21:21.920Z,1.27
2024-01-07T16:23:52.555Z,1.23
2024-01-07T16:26:20.245Z,1.52
2024-01-07T16:28:47.815Z,1.40
2024-01-07T16:31:15.422Z,1.50
2024-01-07T16:33:43.358Z,1.58
2024-01-07T16:36:11.175Z,1.50
2024-01-07T16:38:39.241Z,1.35
2024-01-07T16:41:09.147Z,1.90
2024-01-07T16:43:37.508Z,1.48
2024-01-07T16:46:05.360Z,1.65
2024-01-07T16:51:05.147Z,1.95
2024-01-07T16:53:33.199Z,2.03
2024-01-07T16:56:01.262Z,1.77
2024-01-07T16:58:28.841Z,1.70
2024-01-07T17:00:58.583Z,1.73
2024-01-07T17:03:27.357Z,1.90
2024-01-07T17:05:54.994Z,1.70
2024-01-07T17:08:22.610Z,1.60
2024-01-07T17:10:50.282Z,1.75
2024-01-07T17:13:17.739Z,1.67
2024-01-07T17:18:12.957Z,1.80
2024-01-07T17:20:40.751Z,1.73
2024-01-07T17:23:17.866Z,1.73
2024-01-07T17:25:50.127Z,1.83
2024-01-07T17:28:18.149Z,1.55
2024-01-07T17:30:45.654Z,2.13
2024-01-07T17:33:13.251Z,2.05
2024-01-07T17:35:41.494Z,2.40
2024-01-07T17:38:09.173Z,1.70
2024-01-07T17:40:36.808Z,1.90
2024-01-07T17:43:05.252Z,2.00
2024-01-07T17:45:32.830Z,2.28
2024-01-07T17:48:00.562Z,1.90
2024-01-07T17:50:28.135Z,1.92
2024-01-07T17:52:55.975Z,2.08
2024-01-07T17:55:23.625Z,2.00
2024-01-07T17:57:51.174Z,1.70
2024-01-07T18:00:19.320Z,1.90
2024-01-07T18:02:47.609Z,1.75
2024-01-07T18:05:15.394Z,2.10
2024-01-07T18:07:43.108Z,2.20
2024-01-07T18:10:12.393Z,2.38
2024-01-07T18:12:40.707Z,2.08
2024-01-07T18:15:09.338Z,2.38
2024-01-07T18:17:37.241Z,2.03
2024-01-07T18:20:05.438Z,2.10
2024-01-07T18:22:33.093Z,2.20
2024-01-07T18:25:00.777Z,2.00
2024-01-07T18:27:28.312Z,2.70
2024-01-07T18:29:56.417Z,2.38
2024-01-07T18:32:23.961Z,2.83
2024-01-07T18:34:54.287Z,2.30
2024-01-07T18:37:24.821Z,2.25
2024-01-07T18:39:52.383Z,2.83
2024-01-07T18:42:20.146Z,2.40
2024-01-07T18:44:47.663Z,2.47
2024-01-07T18:47:16.655Z,2.22
2024-01-07T18:49:44.211Z,2.53
2024-01-07T18:52:14.410Z,2.30
2024-01-07T18:54:42.710Z,2.75
2024-01-07T18:57:10.766Z,2.70
2024-01-07T18:59:38.399Z,2.85
2024-01-07T19:02:06.716Z,2.42
2024-01-07T19:04:34.343Z,2.65
2024-01-07T19:07:01.925Z,2.33
2024-01-07T19:09:29.547Z,2.53
2024-01-07T19:11:57.160Z,2.67
2024-01-07T19:14:24.997Z,1.88
2024-01-07T19:16:52.836Z,2.35
2024-01-07T19:19:20.687Z,1.95
2024-01-07T19:21:49.008Z,2.33
2024-01-07T19:24:16.456Z,2.78
2024-01-07T19:29:13.274Z,2.55
2024-01-07T19:31:40.916Z,2.47
2024-01-07T19:34:08.613Z,3.00
2024-01-07T19:36:46.076Z,2.20
2024-01-07T19:39:13.895Z,2.30
2024-01-07T19:41:41.487Z,1.92
2024-01-07T19:44:10.024Z,2.20
2024-01-07T19:46:38.197Z,2.55
2024-01-07T19:49:07.111Z,2.33
2024-01-07T19:51:34.696Z,2.58
2024-01-07T19:56:29.695Z,2.38
2024-01-07T19:58:57.429Z,2.28
2024-01-07T20:01:25.099Z,2.50
2024-01-07T20:03:52.836Z,2.17
2024-01-07T20:06:21.415Z,2.63
2024-01-07T20:08:50.264Z,2.25
2024-01-07T20:11:25.681Z,2.63
2024-01-07T20:13:53.744Z,2.38
2024-01-07T20:16:21.833Z,2.53
2024-01-07T20:18:52.926Z,2.30
2024-01-07T20:21:23.070Z,2.33
2024-01-07T20:23:51.800Z,3.28
2024-01-07T20:26:19.383Z,2.38
2024-01-07T20:28:47.575Z,2.25
2024-01-07T20:31:15.257Z,2.25
2024-01-07T20:33:42.941Z,2.17
2024-01-07T20:36:12.487Z,2.45
2024-01-07T20:38:40.636Z,2.42
2024-01-07T20:41:08.860Z,2.15
2024-01-07T20:43:36.630Z,2.65
2024-01-07T20:46:06.816Z,2.30
2024-01-07T20:48:35.249Z,2.63
2024-01-07T20:51:03.610Z,2.67
2024-01-07T20:53:32.672Z,2.63
2024-01-07T20:56:00.408Z,2.67
2024-01-07T20:58:36.605Z,2.92
2024-01-07T21:01:04.281Z,4.28
2024-01-07T21:03:32.007Z,2.58
2024-01-07T21:06:02.056Z,3.40
2024-01-07T21:08:30.075Z,2.85
2024-01-07T21:10:59.107Z,2.75
2024-01-07T21:13:27.312Z,2.70
2024-01-07T21:15:54.856Z,3.50
2024-01-07T21:18:22.449Z,2.63
2024-01-07T21:20:50.772Z,2.60
2024-01-07T21:23:19.588Z,2.50
2024-01-07T21:25:47.945Z,2.45
2024-01-07T21:28:15.947Z,2.47
2024-01-07T21:30:45.605Z,2.83
2024-01-07T21:33:13.782Z,2.40
2024-01-07T21:35:41.344Z,2.60
2024-01-07T21:40:36.249Z,2.90
2024-01-07T21:43:04.191Z,2.58
2024-01-07T21:45:31.937Z,2.67
2024-01-07T21:47:59.496Z,3.60
2024-01-07T21:50:27.185Z,3.03
2024-01-07T21:52:56.981Z,2.95
2024-01-07T21:55:24.708Z,3.35
2024-01-07T22:00:19.844Z,3.13
2024-01-07T22:02:48.293Z,3.20
2024-01-07T22:05:16.041Z,3.03
2024-01-07T22:07:43.658Z,3.35
2024-01-07T22:10:11.398Z,3.28
2024-01-07T22:12:38.880Z,3.30
2024-01-07T22:17:36.271Z,3.10
2024-01-07T22:20:05.886Z,3.20
2024-01-07T22:22:33.431Z,3.15
2024-01-07T22:27:28.372Z,3.40
2024-01-07T22:29:55.874Z,4.07
2024-01-07T22:34:50.813Z,3.30
2024-01-07T22:37:18.975Z,2.90
2024-01-07T22:39:49.279Z,4.18
2024-01-07T22:42:17.365Z,3.67
2024-01-07T22:44:44.886Z,3.50
2024-01-07T22:47:12.529Z,3.67
2024-01-07T22:49:40.148Z,3.90
2024-01-07T22:52:07.685Z,3.47
2024-01-07T22:54:38.823Z,4.57
2024-01-07T22:57:07.262Z,3.33
2024-01-07T22:59:35.865Z,3.97
2024-01-07T23:02:05.825Z,3.95
2024-01-07T23:04:33.556Z,3.70
2024-01-07T23:07:01.124Z,3.90
2024-01-07T23:09:28.782Z,3.83
2024-01-07T23:11:56.324Z,3.60
2024-01-07T23:14:24.014Z,3.88
2024-01-07T23:16:51.690Z,4.15
2024-01-07T23:19:19.519Z,3.42
2024-01-07T23:21:49.101Z,3.35
2024-01-07T23:24:16.706Z,3.90
2024-01-07T23:26:44.635Z,4.53
2024-01-07T23:29:12.276Z,3.47
2024-01-07T23:31:40.041Z,3.33
2024-01-07T23:34:08.768Z,5.50
2024-01-07T23:36:36.358Z,3.70
2024-01-07T23:39:05.170Z,3.20
2024-01-07T23:41:32.688Z,4.10
2024-01-07T23:44:00.544Z,3.30
2024-01-07T23:46:28.482Z,3.58
2024-01-07T23:48:56.106Z,3.80
2024-01-07T23:51:23.669Z,3.72
2024-01-07T23:53:51.206Z,3.03
2024-01-07T23:58:47.263Z,4.35
